createdAt,value
2019-05-12T00:00:21.528Z,9.60
2019-05-12T00:02:50.004Z,9.70
2019-05-12T00:10:17.837Z,9.90
2019-05-12T00:12:48.239Z,10.20
2019-05-12T00:15:19.384Z,9.80
2019-05-12T00:17:48.356Z,9.90
2019-05-12T00:20:18.182Z,9.90
2019-05-12T00:22:54.298Z,9.30
2019-05-12T00:25:22.841Z,9.90
2019-05-12T00:30:32.962Z,9.40
2019-05-12T00:33:03.384Z,9.70
2019-05-12T00:38:00.175Z,9.20
2019-05-12T00:40:28.845Z,9.40
2019-05-12T00:42:57.902Z,9.40
2019-05-12T00:45:28.905Z,9.20
2019-05-12T00:47:58.251Z,9.10
2019-05-12T00:50:28.859Z,9.10
2019-05-12T00:52:58.003Z,9.00
2019-05-12T00:55:28.896Z,9.00
2019-05-12T00:57:58.184Z,9.10
2019-05-12T01:00:29.324Z,9.00
2019-05-12T01:05:29.152Z,8.80
2019-05-12T01:07:58.319Z,8.60
2019-05-12T01:10:28.541Z,9.10
2019-05-12T01:12:58.355Z,8.60
2019-05-12T01:15:28.622Z,8.60
2019-05-12T01:17:58.562Z,9.00
2019-05-12T01:22:57.932Z,8.60
2019-05-12T01:25:29.127Z,9.20
2019-05-12T01:27:58.868Z,8.50
2019-05-12T01:30:28.535Z,8.50
2019-05-12T01:32:58.173Z,8.60
2019-05-12T01:35:28.134Z,8.60
2019-05-12T01:37:58.699Z,8.40
2019-05-12T01:40:28.528Z,8.80
2019-05-12T01:45:28.749Z,8.70
2019-05-12T01:47:59.022Z,8.60
2019-05-12T01:50:28.335Z,9.20
2019-05-12T01:52:58.654Z,8.60
2019-05-12T01:55:28.227Z,8.40
2019-05-12T01:57:57.915Z,8.60
2019-05-12T02:00:28.304Z,8.60
2019-05-12T02:02:58.505Z,8.60
2019-05-12T02:05:28.049Z,8.70
2019-05-12T02:07:58.801Z,8.70
2019-05-12T02:10:28.702Z,8.50
2019-05-12T02:12:59.288Z,8.50
2019-05-12T02:15:28.056Z,8.40
2019-05-12T02:20:28.670Z,8.50
2019-05-12T02:22:58.310Z,8.60
2019-05-12T02:27:58.453Z,8.60
2019-05-12T02:30:30.309Z,8.50
2019-05-12T02:32:59.236Z,8.10
2019-05-12T02:35:27.694Z,8.20
2019-05-12T02:37:56.113Z,8.50
2019-05-12T02:40:25.362Z,8.60
2019-05-12T02:42:54.820Z,8.60
2019-05-12T02:45:25.413Z,8.60
2019-05-12T02:47:54.421Z,7.90
2019-05-12T02:50:35.935Z,8.50
2019-05-12T02:53:05.591Z,8.80
2019-05-12T03:00:35.537Z,8.60
2019-05-12T03:03:07.688Z,8.70
2019-05-12T03:05:38.238Z,8.70
2019-05-12T03:08:06.891Z,8.60
2019-05-12T03:10:36.534Z,8.70
2019-05-12T03:13:05.142Z,8.60
2019-05-12T03:15:36.496Z,8.50
2019-05-12T03:18:06.143Z,9.20
2019-05-12T03:20:35.182Z,8.70
2019-05-12T03:23:06.053Z,9.30
2019-05-12T03:25:36.276Z,8.70
2019-05-12T03:28:08.138Z,8.60
2019-05-12T03:30:38.246Z,8.60
2019-05-12T03:35:42.362Z,8.70
2019-05-12T03:38:05.665Z,8.50
2019-05-12T03:40:37.570Z,8.90
2019-05-12T03:43:05.564Z,9.00
2019-05-12T03:48:04.924Z,8.60
2019-05-12T03:53:09.010Z,8.60
2019-05-12T03:55:38.075Z,8.60
2019-05-12T03:58:04.848Z,9.00
2019-05-12T04:00:35.751Z,9.10
2019-05-12T04:03:04.795Z,9.00
2019-05-12T04:05:35.429Z,9.00
2019-05-12T04:10:35.911Z,8.70
2019-05-12T04:13:05.005Z,8.80
2019-05-12T04:15:34.951Z,8.90
2019-05-12T04:18:05.391Z,8.80
2019-05-12T04:20:35.752Z,8.70
2019-05-12T04:25:47.889Z,8.60
2019-05-12T04:33:04.788Z,7.60
2019-05-12T04:35:35.155Z,8.40
2019-05-12T04:38:04.890Z,8.20
2019-05-12T04:40:35.818Z,8.30
2019-05-12T04:43:06.151Z,8.10
2019-05-12T04:45:35.498Z,8.40
2019-05-12T04:48:05.952Z,8.30
2019-05-12T04:50:35.838Z,8.20
2019-05-12T04:53:06.479Z,8.30
2019-05-12T04:55:36.352Z,8.20
2019-05-12T04:58:05.934Z,8.10
2019-05-12T05:00:35.374Z,8.40
2019-05-12T05:03:05.418Z,8.00
2019-05-12T05:05:35.928Z,8.30
2019-05-12T05:08:05.159Z,8.50
2019-05-12T05:10:34.754Z,8.00
2019-05-12T05:13:05.311Z,8.00
2019-05-12T05:18:06.480Z,7.40
2019-05-12T05:20:34.528Z,7.60
2019-05-12T05:23:03.760Z,7.80
2019-05-12T05:25:34.323Z,7.50
2019-05-12T05:28:04.074Z,7.60
2019-05-12T05:30:33.885Z,7.90
2019-05-12T05:33:04.711Z,7.60
2019-05-12T05:35:39.381Z,7.30
2019-05-12T05:43:12.240Z,8.00
2019-05-12T05:45:35.228Z,7.40
2019-05-12T05:50:34.257Z,7.20
2019-05-12T05:53:03.846Z,7.00
2019-05-12T05:55:34.411Z,7.60
2019-05-12T05:58:05.814Z,7.50
2019-05-12T06:00:35.220Z,7.60
2019-05-12T06:03:05.446Z,7.50
2019-05-12T06:05:36.474Z,7.40
2019-05-12T06:10:36.168Z,7.50
2019-05-12T06:13:04.129Z,7.60
2019-05-12T06:20:37.409Z,7.40
2019-05-12T06:28:04.581Z,7.30
2019-05-12T06:30:37.519Z,7.50
2019-05-12T06:33:04.290Z,7.60
2019-05-12T06:35:37.459Z,7.70
2019-05-12T06:50:36.920Z,7.30
2019-05-12T06:58:04.441Z,7.20
2019-05-12T07:05:37.777Z,7.30
2019-05-12T07:08:04.222Z,7.20
2019-05-12T07:20:35.633Z,7.50
2019-05-12T07:30:35.438Z,7.20
2019-05-12T07:40:37.249Z,7.20
2019-05-12T07:45:34.016Z,6.90
2019-05-12T07:50:34.418Z,7.60
2019-05-12T07:55:34.059Z,7.70
2019-05-12T07:58:17.736Z,7.20
2019-05-12T08:00:44.226Z,7.30
2019-05-12T08:03:21.030Z,7.20
2019-05-12T08:05:43.950Z,7.00
2019-05-12T08:08:14.552Z,7.50
2019-05-12T08:10:44.315Z,7.60
2019-05-12T08:13:14.841Z,6.90
2019-05-12T08:15:45.673Z,8.00
2019-05-12T08:23:14.090Z,7.00
2019-05-12T08:33:14.328Z,6.90
2019-05-12T08:35:43.807Z,6.90
2019-05-12T08:38:14.471Z,7.40
2019-05-12T08:45:44.333Z,7.10
2019-05-12T08:48:17.051Z,7.30
2019-05-12T08:50:46.071Z,6.80
2019-05-12T08:53:20.465Z,7.20
2019-05-12T08:55:43.718Z,7.30
2019-05-12T09:05:44.314Z,7.40
2019-05-12T09:08:13.833Z,7.00
2019-05-12T09:10:44.992Z,7.30
2019-05-12T09:13:14.455Z,6.70
2019-05-12T09:15:43.742Z,7.40
2019-05-12T09:18:14.487Z,7.40
2019-05-12T09:20:48.818Z,7.50
2019-05-12T09:23:13.611Z,7.40
2019-05-12T09:25:45.286Z,7.40
2019-05-12T09:28:13.851Z,7.00
2019-05-12T09:43:13.756Z,7.20
2019-05-12T09:45:52.052Z,7.20
2019-05-12T09:48:14.139Z,7.20
2019-05-12T09:50:45.919Z,7.00
2019-05-12T09:53:14.443Z,7.30
2019-05-12T09:55:43.909Z,7.70
2019-05-12T10:03:13.834Z,7.50
2019-05-12T10:05:44.157Z,7.70
2019-05-12T10:08:13.880Z,7.60
2019-05-12T10:13:13.949Z,7.30
2019-05-12T10:15:43.072Z,7.50
2019-05-12T10:18:13.773Z,7.60
2019-05-12T10:20:43.900Z,7.40
2019-05-12T10:33:07.880Z,7.50
2019-05-12T10:35:36.353Z,7.30
2019-05-12T10:40:34.646Z,7.50
2019-05-12T10:45:34.053Z,7.30
2019-05-12T10:48:03.609Z,7.30
2019-05-12T10:50:34.081Z,7.40
2019-05-12T10:53:04.640Z,7.50
2019-05-12T10:55:33.579Z,7.70
2019-05-12T10:58:06.487Z,7.60
2019-05-12T11:00:33.809Z,7.60
2019-05-12T11:10:32.243Z,7.80
2019-05-12T11:13:05.935Z,7.70
2019-05-12T11:15:31.007Z,7.70
2019-05-12T11:20:29.234Z,7.60
2019-05-12T11:25:25.821Z,8.00
2019-05-12T11:32:54.053Z,7.90
2019-05-12T11:35:23.739Z,7.90
2019-05-12T11:37:53.917Z,8.20
2019-05-12T11:40:23.860Z,8.50
2019-05-12T11:42:59.028Z,8.20
2019-05-12T11:45:24.157Z,8.40
2019-05-12T11:47:56.962Z,8.20
2019-05-12T11:50:23.189Z,8.20
2019-05-12T11:55:21.443Z,8.10
2019-05-12T11:57:51.238Z,8.20
2019-05-12T12:00:21.501Z,8.00
2019-05-12T12:02:49.942Z,8.40
2019-05-12T12:05:18.470Z,8.10
2019-05-12T12:07:51.265Z,7.90
2019-05-12T12:10:17.340Z,7.90
2019-05-12T12:12:49.215Z,8.10
2019-05-12T12:15:20.460Z,8.10
2019-05-12T12:20:22.250Z,8.20
2019-05-12T12:25:17.796Z,8.30
2019-05-12T12:27:46.678Z,8.10
2019-05-12T12:30:19.714Z,8.00
2019-05-12T12:32:50.303Z,8.10
2019-05-12T12:35:16.880Z,8.10
2019-05-12T12:37:45.346Z,8.10
2019-05-12T12:40:14.496Z,8.10
2019-05-12T12:42:47.040Z,8.00
2019-05-12T12:45:18.043Z,8.10
2019-05-12T12:47:49.180Z,8.30
2019-05-12T12:50:20.111Z,8.00
2019-05-12T12:52:48.813Z,8.00
2019-05-12T12:55:17.254Z,8.00
2019-05-12T12:57:50.605Z,8.30
2019-05-12T13:00:28.903Z,8.20
2019-05-12T13:05:16.295Z,8.30
2019-05-12T13:07:44.758Z,8.40
2019-05-12T13:15:14.431Z,8.10
2019-05-12T13:17:44.808Z,8.00
2019-05-12T13:20:14.282Z,8.40
2019-05-12T13:22:44.389Z,8.20
2019-05-12T13:25:14.206Z,8.10
2019-05-12T13:27:43.008Z,8.10
2019-05-12T13:30:19.518Z,8.40
2019-05-12T13:32:44.147Z,7.90
2019-05-12T13:35:16.550Z,7.80
2019-05-12T13:37:43.362Z,7.90
2019-05-12T13:40:12.538Z,7.80
2019-05-12T13:42:40.993Z,8.10
2019-05-12T13:45:13.179Z,7.70
2019-05-12T13:47:40.332Z,7.80
2019-05-12T13:52:38.730Z,8.30
2019-05-12T13:55:07.887Z,7.80
2019-05-12T13:57:36.451Z,7.90
2019-05-12T14:00:10.609Z,8.00
2019-05-12T14:02:37.188Z,8.30
2019-05-12T14:05:11.090Z,8.00
2019-05-12T14:07:36.260Z,8.10
2019-05-12T14:12:34.373Z,8.10
2019-05-12T14:15:03.017Z,8.30
2019-05-12T14:17:37.330Z,8.00
2019-05-12T14:20:03.926Z,7.40
2019-05-12T14:25:02.311Z,7.80
2019-05-12T14:27:32.845Z,7.90
2019-05-12T14:32:33.511Z,7.90
2019-05-12T14:35:01.189Z,8.00
2019-05-12T14:39:57.755Z,8.00
2019-05-12T14:42:34.955Z,8.20
2019-05-12T14:44:56.439Z,8.70
2019-05-12T14:47:29.903Z,8.40
2019-05-12T14:49:55.177Z,8.30
2019-05-12T14:52:23.691Z,8.40
2019-05-12T14:54:54.044Z,8.40
2019-05-12T14:57:24.224Z,8.50
2019-05-12T14:59:52.563Z,8.30
2019-05-12T15:04:50.952Z,8.60
2019-05-12T15:07:19.428Z,8.30
2019-05-12T15:12:16.021Z,8.30
2019-05-12T15:14:44.483Z,8.50
2019-05-12T15:17:21.968Z,8.30
2019-05-12T15:19:44.051Z,8.90
2019-05-12T15:22:14.703Z,8.60
2019-05-12T15:24:44.138Z,8.70
2019-05-12T15:29:42.086Z,8.10
2019-05-12T15:32:10.573Z,8.40
2019-05-12T15:34:39.065Z,8.50
2019-05-12T15:37:07.536Z,8.60
2019-05-12T15:39:36.073Z,9.00
2019-05-12T15:42:04.782Z,8.50
2019-05-12T15:44:36.351Z,8.60
2019-05-12T15:47:03.925Z,8.60
2019-05-12T15:54:35.725Z,8.40
2019-05-12T15:57:04.220Z,8.40
2019-05-12T16:02:12.302Z,8.30
2019-05-12T16:04:34.645Z,8.60
2019-05-12T16:07:04.002Z,8.20
2019-05-12T16:09:34.479Z,8.40
2019-05-12T16:12:09.473Z,8.00
2019-05-12T16:14:36.914Z,8.50
2019-05-12T16:22:03.652Z,8.30
2019-05-12T16:29:33.938Z,8.20
2019-05-12T16:32:04.390Z,8.40
2019-05-12T16:34:36.182Z,8.30
2019-05-12T16:37:04.102Z,8.60
2019-05-12T16:39:37.162Z,8.00
2019-05-12T16:44:34.851Z,8.30
2019-05-12T16:47:04.293Z,8.50
2019-05-12T16:49:34.637Z,8.40
2019-05-12T16:52:03.752Z,8.50
2019-05-12T16:54:33.531Z,8.20
2019-05-12T16:59:32.072Z,8.50
2019-05-12T17:04:30.368Z,8.50
2019-05-12T17:06:58.885Z,7.70
2019-05-12T17:16:54.210Z,8.40
2019-05-12T17:19:23.630Z,8.50
2019-05-12T17:24:23.950Z,8.40
2019-05-12T17:26:52.392Z,8.20
2019-05-12T17:29:20.871Z,8.40
2019-05-12T17:31:49.299Z,8.50
2019-05-12T17:36:50.143Z,8.30
2019-05-12T17:39:16.179Z,8.20
2019-05-12T17:41:45.635Z,8.70
2019-05-12T18:04:04.755Z,8.00
2019-05-12T18:11:34.022Z,8.20
2019-05-12T18:14:06.821Z,8.00
2019-05-12T18:16:33.907Z,8.30
2019-05-12T18:19:03.360Z,8.20
2019-05-12T18:31:33.425Z,8.20
2019-05-12T18:34:04.763Z,7.90
2019-05-12T18:36:34.158Z,8.40
2019-05-12T18:39:05.596Z,8.20
2019-05-12T18:41:33.665Z,7.90
2019-05-12T18:46:36.242Z,8.00
2019-05-12T18:51:34.393Z,8.20
2019-05-12T18:56:33.612Z,7.90
2019-05-12T18:59:11.197Z,7.90
2019-05-12T19:01:33.460Z,8.10
2019-05-12T19:04:03.746Z,7.80
2019-05-12T19:06:33.848Z,8.00
2019-05-12T19:09:04.121Z,7.40
2019-05-12T19:11:41.677Z,7.90
2019-05-12T19:19:01.158Z,7.50
2019-05-12T19:31:24.883Z,8.30
2019-05-12T19:34:14.759Z,7.60
2019-05-12T19:38:54.493Z,8.00
2019-05-12T19:41:24.556Z,7.80
2019-05-12T19:43:53.470Z,8.10
2019-05-12T19:46:24.081Z,8.20
2019-05-12T19:56:20.312Z,8.00
2019-05-12T19:58:48.779Z,8.10
2019-05-12T20:03:50.104Z,7.60
2019-05-12T20:08:44.766Z,7.70
2019-05-12T20:16:21.341Z,7.90
2019-05-12T20:23:43.941Z,7.50
2019-05-12T20:26:14.547Z,7.90
2019-05-12T20:28:50.148Z,8.00
2019-05-12T20:33:43.469Z,7.90
2019-05-12T20:36:14.086Z,7.80
2019-05-12T20:38:44.424Z,7.50
2019-05-12T20:43:44.339Z,7.80
2019-05-12T20:51:15.351Z,7.80
2019-05-12T20:53:43.593Z,7.30
2019-05-12T20:56:18.523Z,7.90
2019-05-12T21:08:44.984Z,8.00
2019-05-12T21:11:10.424Z,7.90
2019-05-12T21:21:06.819Z,7.40
2019-05-12T21:23:35.320Z,7.90
2019-05-12T21:26:04.281Z,7.70
2019-05-12T21:28:37.181Z,6.90
2019-05-12T21:31:03.659Z,7.40
2019-05-12T21:33:40.057Z,7.40
2019-05-12T21:38:34.085Z,7.60
2019-05-12T21:41:07.704Z,7.50
2019-05-12T21:43:32.907Z,7.50
2019-05-12T21:46:07.731Z,7.80
2019-05-12T21:48:33.905Z,7.30
2019-05-12T21:53:31.634Z,7.60
2019-05-12T21:56:03.942Z,7.30
2019-05-12T22:08:28.227Z,7.80
2019-05-12T22:11:00.935Z,7.50
2019-05-12T22:13:27.040Z,7.40
2019-05-12T22:18:25.448Z,7.30
2019-05-12T22:23:24.733Z,7.30
2019-05-12T22:25:55.681Z,7.50
2019-05-12T22:36:02.770Z,7.50
2019-05-12T22:38:24.814Z,7.60
2019-05-12T22:40:56.150Z,7.40
2019-05-12T22:43:23.870Z,7.40
2019-05-12T22:45:54.503Z,7.60
2019-05-12T22:48:22.661Z,7.00
2019-05-12T22:50:51.187Z,7.50
2019-05-12T22:53:25.776Z,7.10
2019-05-12T22:55:49.801Z,7.50
2019-05-12T22:58:22.394Z,7.50
2019-05-12T23:05:50.716Z,7.50
2019-05-12T23:28:10.623Z,7.50
2019-05-12T23:30:43.673Z,7.20
2019-05-12T23:33:09.432Z,7.50
2019-05-12T23:35:39.459Z,7.40
2019-05-12T23:40:38.097Z,7.40
2019-05-12T23:43:06.583Z,7.50
2019-05-12T23:45:35.021Z,7.10
2019-05-12T23:48:04.108Z,7.00
2019-05-12T23:53:03.432Z,7.50
2019-05-12T23:57:59.846Z,7.70
